Terminal Aerodrome Forecast
Issued by NWS

Home | Current Version | Previous Version | Text Only | Print | Product List | Glossary On
Versions: 1 2 3 4 5 6 7 8 9 10 11 12 13 14 15 16 17 18
000
FTUS45 KFGZ 222300
TAFGCN
TAF
KGCN 222323Z 2300/2324 22010G16KT P6SM SCT040 BKN080
     FM230300 VRB03KT P6SM SCT030
     FM231800 23010G17KT P6SM FEW060=

USA.gov is the U.S. government's official web portal to all federal, state and local government web resources and services.